sensor_id;sensor_type;location;lat;lon;timestamp;pressure;altitude;pressure_sealevel;temperature;humidity
64668;BME280;51077;42.716;23.344;2023-04-21T00:01:48;94965.41;;;13.23;52.17
64668;BME280;51077;42.716;23.344;2023-04-21T00:04:14;94970.69;;;13.21;51.97
64668;BME280;51077;42.716;23.344;2023-04-21T00:06:39;94960.00;;;13.18;52.47
64668;BME280;51077;42.716;23.344;2023-04-21T00:09:07;94959.06;;;13.15;52.23
64668;BME280;51077;42.716;23.344;2023-04-21T00:11:32;94959.59;;;13.14;52.34
64668;BME280;51077;42.716;23.344;2023-04-21T00:13:57;94957.94;;;13.11;52.43
64668;BME280;51077;42.716;23.344;2023-04-21T00:16:23;94963.97;;;13.09;52.17
64668;BME280;51077;42.716;23.344;2023-04-21T00:18:48;94965.78;;;13.06;52.53
64668;BME280;51077;42.716;23.344;2023-04-21T00:21:14;94963.56;;;13.05;52.13
64668;BME280;51077;42.716;23.344;2023-04-21T00:23:40;94970.16;;;13.02;52.35
64668;BME280;51077;42.716;23.344;2023-04-21T00:26:06;94958.91;;;13.00;52.50
64668;BME280;51077;42.716;23.344;2023-04-21T00:28:31;94962.72;;;12.97;52.34
64668;BME280;51077;42.716;23.344;2023-04-21T00:30:56;94967.31;;;12.94;52.67
64668;BME280;51077;42.716;23.344;2023-04-21T00:33:22;94969.84;;;12.92;52.61
64668;BME280;51077;42.716;23.344;2023-04-21T00:35:47;94965.41;;;12.89;52.67
64668;BME280;51077;42.716;23.344;2023-04-21T00:38:13;94963.50;;;12.84;52.73
64668;BME280;51077;42.716;23.344;2023-04-21T00:40:38;94968.09;;;12.81;52.91
64668;BME280;51077;42.716;23.344;2023-04-21T00:43:06;94968.63;;;12.80;52.58
64668;BME280;51077;42.716;23.344;2023-04-21T00:45:32;94970.44;;;12.77;52.55
64668;BME280;51077;42.716;23.344;2023-04-21T00:47:57;94967.25;;;12.73;52.81
64668;BME280;51077;42.716;23.344;2023-04-21T00:50:23;94960.78;;;12.71;52.88
64668;BME280;51077;42.716;23.344;2023-04-21T00:52:49;94959.84;;;12.68;52.84
64668;BME280;51077;42.716;23.344;2023-04-21T00:55:15;94958.16;;;12.65;52.89
64668;BME280;51077;42.716;23.344;2023-04-21T00:57:40;94955.00;;;12.61;52.99
64668;BME280;51077;42.716;23.344;2023-04-21T01:00:06;94949.06;;;12.57;53.01
64668;BME280;51077;42.716;23.344;2023-04-21T01:02:37;94946.84;;;12.55;52.95
64668;BME280;51077;42.716;23.344;2023-04-21T01:05:04;94956.19;;;12.52;53.14
64668;BME280;51077;42.716;23.344;2023-04-21T01:07:31;94946.97;;;12.50;53.00
64668;BME280;51077;42.716;23.344;2023-04-21T01:09:57;94939.47;;;12.50;53.05
64668;BME280;51077;42.716;23.344;2023-04-21T01:12:23;94950.06;;;12.46;52.94
64668;BME280;51077;42.716;23.344;2023-04-21T01:14:49;94951.84;;;12.44;53.17
64668;BME280;51077;42.716;23.344;2023-04-21T01:17:15;94946.16;;;12.42;53.05
64668;BME280;51077;42.716;23.344;2023-04-21T01:19:43;94956.19;;;12.39;53.15
64668;BME280;51077;42.716;23.344;2023-04-21T01:22:10;94950.50;;;12.37;53.25
64668;BME280;51077;42.716;23.344;2023-04-21T01:24:36;94966.78;;;12.35;53.26
64668;BME280;51077;42.716;23.344;2023-04-21T01:27:02;94956.31;;;12.33;53.07
64668;BME280;51077;42.716;23.344;2023-04-21T01:29:31;94954.09;;;12.32;53.15
64668;BME280;51077;42.716;23.344;2023-04-21T01:31:57;94950.16;;;12.27;53.13
64668;BME280;51077;42.716;23.344;2023-04-21T01:34:22;94952.72;;;12.25;53.20
64668;BME280;51077;42.716;23.344;2023-04-21T01:36:48;94934.00;;;12.24;53.27
64668;BME280;51077;42.716;23.344;2023-04-21T01:39:13;94948.81;;;12.21;53.42
64668;BME280;51077;42.716;23.344;2023-04-21T01:41:38;94944.59;;;12.20;53.13
64668;BME280;51077;42.716;23.344;2023-04-21T01:44:04;94942.88;;;12.17;53.38
64668;BME280;51077;42.716;23.344;2023-04-21T01:46:30;94936.41;;;12.14;53.46
64668;BME280;51077;42.716;23.344;2023-04-21T01:48:55;94941.19;;;12.14;53.22
64668;BME280;51077;42.716;23.344;2023-04-21T01:51:21;94938.00;;;12.10;53.66
64668;BME280;51077;42.716;23.344;2023-04-21T01:53:46;94938.56;;;12.08;53.51
64668;BME280;51077;42.716;23.344;2023-04-21T01:56:14;94941.84;;;12.06;53.58
64668;BME280;51077;42.716;23.344;2023-04-21T01:58:40;94946.38;;;12.04;53.60
64668;BME280;51077;42.716;23.344;2023-04-21T02:01:05;94944.16;;;12.02;53.56
64668;BME280;51077;42.716;23.344;2023-04-21T02:03:31;94943.94;;;12.00;53.59
64668;BME280;51077;42.716;23.344;2023-04-21T02:05:56;94938.97;;;11.99;53.64
64668;BME280;51077;42.716;23.344;2023-04-21T02:08:21;94948.28;;;11.96;53.89
64668;BME280;51077;42.716;23.344;2023-04-21T02:10:47;94944.59;;;11.93;53.79
64668;BME280;51077;42.716;23.344;2023-04-21T02:13:13;94936.13;;;11.91;53.70
64668;BME280;51077;42.716;23.344;2023-04-21T02:15:38;94943.63;;;11.91;53.86
64668;BME280;51077;42.716;23.344;2023-04-21T02:18:04;94938.66;;;11.89;53.62
64668;BME280;51077;42.716;23.344;2023-04-21T02:20:30;94941.94;;;11.88;53.84
64668;BME280;51077;42.716;23.344;2023-04-21T02:22:56;94931.47;;;11.86;53.74
64668;BME280;51077;42.716;23.344;2023-04-21T02:25:21;94935.50;;;11.85;53.71
64668;BME280;51077;42.716;23.344;2023-04-21T02:27:47;94936.75;;;11.84;53.69
64668;BME280;51077;42.716;23.344;2023-04-21T02:30:12;94935.25;;;11.83;53.81
64668;BME280;51077;42.716;23.344;2023-04-21T02:32:37;94930.81;;;11.80;53.65
64668;BME280;51077;42.716;23.344;2023-04-21T02:35:03;94930.03;;;11.79;53.74
64668;BME280;51077;42.716;23.344;2023-04-21T02:37:29;94936.81;;;11.78;53.66
64668;BME280;51077;42.716;23.344;2023-04-21T02:39:54;94936.09;;;11.78;53.85
64668;BME280;51077;42.716;23.344;2023-04-21T02:42:19;94929.84;;;11.77;53.90
64668;BME280;51077;42.716;23.344;2023-04-21T02:44:45;94937.34;;;11.77;53.69
64668;BME280;51077;42.716;23.344;2023-04-21T02:47:10;94944.34;;;11.78;53.81
64668;BME280;51077;42.716;23.344;2023-04-21T02:49:40;94945.06;;;11.78;53.70
64668;BME280;51077;42.716;23.344;2023-04-21T02:52:06;94947.31;;;11.80;53.96
64668;BME280;51077;42.716;23.344;2023-04-21T02:54:31;94936.50;;;11.82;53.81
64668;BME280;51077;42.716;23.344;2023-04-21T02:56:57;94944.25;;;11.83;53.54
64668;BME280;51077;42.716;23.344;2023-04-21T02:59:22;94943.75;;;11.85;53.76
64668;BME280;51077;42.716;23.344;2023-04-21T03:01:48;94943.94;;;11.87;53.45
64668;BME280;51077;42.716;23.344;2023-04-21T03:04:13;94941.41;;;11.89;53.62
64668;BME280;51077;42.716;23.344;2023-04-21T03:06:39;94942.16;;;11.90;53.49
64668;BME280;51077;42.716;23.344;2023-04-21T03:09:04;94940.34;;;11.92;53.65
64668;BME280;51077;42.716;23.344;2023-04-21T03:11:30;94940.75;;;11.96;53.41
64668;BME280;51077;42.716;23.344;2023-04-21T03:13:55;94946.50;;;11.98;53.24
64668;BME280;51077;42.716;23.344;2023-04-21T03:16:20;94947.22;;;11.99;53.29
64668;BME280;51077;42.716;23.344;2023-04-21T03:18:47;94946.91;;;12.02;53.25
64668;BME280;51077;42.716;23.344;2023-04-21T03:21:12;94948.59;;;12.05;53.04
64668;BME280;51077;42.716;23.344;2023-04-21T03:23:38;94947.34;;;12.06;52.97
64668;BME280;51077;42.716;23.344;2023-04-21T03:26:06;94953.03;;;12.08;53.11
64668;BME280;51077;42.716;23.344;2023-04-21T03:28:32;94948.50;;;12.11;52.93
64668;BME280;51077;42.716;23.344;2023-04-21T03:30:58;94947.44;;;12.14;53.06
64668;BME280;51077;42.716;23.344;2023-04-21T03:33:23;94946.91;;;12.16;52.81
64668;BME280;51077;42.716;23.344;2023-04-21T03:35:48;94957.91;;;12.16;52.83
64668;BME280;51077;42.716;23.344;2023-04-21T03:38:14;94961.41;;;12.16;52.80
64668;BME280;51077;42.716;23.344;2023-04-21T03:40:39;94953.88;;;12.17;53.02
64668;BME280;51077;42.716;23.344;2023-04-21T03:43:05;94958.34;;;12.20;52.94
64668;BME280;51077;42.716;23.344;2023-04-21T03:45:30;94961.84;;;12.20;52.65
64668;BME280;51077;42.716;23.344;2023-04-21T03:47:56;94954.31;;;12.21;52.90
64668;BME280;51077;42.716;23.344;2023-04-21T03:50:22;94957.25;;;12.23;52.63
64668;BME280;51077;42.716;23.344;2023-04-21T03:52:47;94960.00;;;12.23;52.85
64668;BME280;51077;42.716;23.344;2023-04-21T03:55:13;94962.56;;;12.34;53.88
64668;BME280;51077;42.716;23.344;2023-04-21T03:57:39;94965.72;;;12.38;55.62
64668;BME280;51077;42.716;23.344;2023-04-21T04:00:06;94966.66;;;12.54;61.49
64668;BME280;51077;42.716;23.344;2023-04-21T04:02:34;94969.38;;;13.01;63.29
64668;BME280;51077;42.716;23.344;2023-04-21T04:04:59;94977.31;;;13.05;61.87
64668;BME280;51077;42.716;23.344;2023-04-21T04:07:25;94976.41;;;13.02;61.17
64668;BME280;51077;42.716;23.344;2023-04-21T04:09:50;94978.00;;;12.98;60.76
64668;BME280;51077;42.716;23.344;2023-04-21T04:12:15;94986.59;;;12.94;60.49
64668;BME280;51077;42.716;23.344;2023-04-21T04:14:41;94983.63;;;12.92;60.32
64668;BME280;51077;42.716;23.344;2023-04-21T04:17:06;94994.13;;;12.94;59.76
64668;BME280;51077;42.716;23.344;2023-04-21T04:19:32;94987.31;;;12.95;59.57
64668;BME280;51077;42.716;23.344;2023-04-21T04:22:01;94988.28;;;12.97;59.42
64668;BME280;51077;42.716;23.344;2023-04-21T04:24:27;95002.78;;;12.98;59.08
64668;BME280;51077;42.716;23.344;2023-04-21T04:26:52;94995.78;;;12.97;58.93
64668;BME280;51077;42.716;23.344;2023-04-21T04:29:19;94994.53;;;12.98;58.63
64668;BME280;51077;42.716;23.344;2023-04-21T04:31:46;94999.50;;;12.99;58.54
64668;BME280;51077;42.716;23.344;2023-04-21T04:34:11;95001.19;;;13.02;58.22
64668;BME280;51077;42.716;23.344;2023-04-21T04:36:36;95004.88;;;13.05;58.15
64668;BME280;51077;42.716;23.344;2023-04-21T04:39:02;95008.59;;;13.07;57.62
64668;BME280;51077;42.716;23.344;2023-04-21T04:41:29;95010.28;;;13.11;57.77
64668;BME280;51077;42.716;23.344;2023-04-21T04:43:57;95016.00;;;13.13;57.44
64668;BME280;51077;42.716;23.344;2023-04-21T04:46:24;95018.94;;;13.15;57.17
64668;BME280;51077;42.716;23.344;2023-04-21T04:48:52;95020.63;;;13.18;56.99
64668;BME280;51077;42.716;23.344;2023-04-21T04:51:17;95025.81;;;13.21;56.67
64668;BME280;51077;42.716;23.344;2023-04-21T04:53:43;95023.50;;;13.25;56.54
64668;BME280;51077;42.716;23.344;2023-04-21T04:56:08;95015.44;;;13.27;56.14
64668;BME280;51077;42.716;23.344;2023-04-21T04:58:36;95016.56;;;13.32;56.12
64668;BME280;51077;42.716;23.344;2023-04-21T05:01:14;95020.28;;;13.35;55.84
64668;BME280;51077;42.716;23.344;2023-04-21T05:03:41;95023.44;;;13.39;55.75
64668;BME280;51077;42.716;23.344;2023-04-21T05:06:06;95023.84;;;13.43;55.69
64668;BME280;51077;42.716;23.344;2023-04-21T05:08:32;95017.28;;;13.46;55.49
64668;BME280;51077;42.716;23.344;2023-04-21T05:10:57;95019.91;;;13.51;55.44
64668;BME280;51077;42.716;23.344;2023-04-21T05:13:23;95020.31;;;13.55;55.19
64668;BME280;51077;42.716;23.344;2023-04-21T05:15:48;95016.66;;;13.61;55.02
64668;BME280;51077;42.716;23.344;2023-04-21T05:18:13;95023.31;;;13.65;54.83
64668;BME280;51077;42.716;23.344;2023-04-21T05:20:42;95026.50;;;13.69;54.92
64668;BME280;51077;42.716;23.344;2023-04-21T05:23:07;95027.84;;;13.76;54.49
64668;BME280;51077;42.716;23.344;2023-04-21T05:25:33;95020.56;;;13.86;54.25
64668;BME280;51077;42.716;23.344;2023-04-21T05:27:58;95016.25;;;13.98;54.38
64668;BME280;51077;42.716;23.344;2023-04-21T05:30:24;95018.94;;;14.12;54.04
64668;BME280;51077;42.716;23.344;2023-04-21T05:32:49;95012.03;;;14.26;54.39
64668;BME280;51077;42.716;23.344;2023-04-21T05:35:15;95021.66;;;14.40;54.22
64668;BME280;51077;42.716;23.344;2023-04-21T05:37:40;95019.78;;;14.56;54.06
64668;BME280;51077;42.716;23.344;2023-04-21T05:40:06;95020.38;;;14.70;54.23
64668;BME280;51077;42.716;23.344;2023-04-21T05:42:31;95019.72;;;14.85;53.86
64668;BME280;51077;42.716;23.344;2023-04-21T05:44:57;95007.78;;;14.97;53.37
64668;BME280;51077;42.716;23.344;2023-04-21T05:47:22;95013.16;;;15.11;53.26
64668;BME280;51077;42.716;23.344;2023-04-21T05:49:53;95011.03;;;15.24;52.99
64668;BME280;51077;42.716;23.344;2023-04-21T05:52:19;95010.66;;;15.36;52.38
64668;BME280;51077;42.716;23.344;2023-04-21T05:54:45;95021.41;;;15.47;51.92
64668;BME280;51077;42.716;23.344;2023-04-21T05:57:11;95007.97;;;15.58;51.56
64668;BME280;51077;42.716;23.344;2023-04-21T05:59:36;95017.94;;;15.69;51.03
64668;BME280;51077;42.716;23.344;2023-04-21T06:02:02;95007.78;;;15.79;50.54
64668;BME280;51077;42.716;23.344;2023-04-21T06:04:28;95013.53;;;15.89;49.99
64668;BME280;51077;42.716;23.344;2023-04-21T06:06:53;95001.19;;;15.98;49.44
64668;BME280;51077;42.716;23.344;2023-04-21T06:09:18;95008.34;;;16.08;49.17
64668;BME280;51077;42.716;23.344;2023-04-21T06:11:44;94996.72;;;16.18;48.58
64668;BME280;51077;42.716;23.344;2023-04-21T06:14:09;95003.16;;;16.28;48.67
64668;BME280;51077;42.716;23.344;2023-04-21T06:16:35;95005.72;;;16.41;48.15
64668;BME280;51077;42.716;23.344;2023-04-21T06:19:00;95005.53;;;16.54;48.14
64668;BME280;51077;42.716;23.344;2023-04-21T06:21:25;95013.03;;;16.69;47.74
64668;BME280;51077;42.716;23.344;2023-04-21T06:23:54;95006.19;;;16.86;47.38
64668;BME280;51077;42.716;23.344;2023-04-21T06:26:20;95006.25;;;17.11;52.81
64668;BME280;51077;42.716;23.344;2023-04-21T06:28:45;95006.44;;;17.45;53.33
64668;BME280;51077;42.716;23.344;2023-04-21T06:31:10;95006.44;;;17.78;51.90
64668;BME280;51077;42.716;23.344;2023-04-21T06:33:40;95005.84;;;18.04;50.82
64668;BME280;51077;42.716;23.344;2023-04-21T06:36:05;94996.34;;;18.32;50.61
64668;BME280;51077;42.716;23.344;2023-04-21T06:38:31;94997.41;;;18.54;49.96
64668;BME280;51077;42.716;23.344;2023-04-21T06:40:57;95000.06;;;18.70;48.92
64668;BME280;51077;42.716;23.344;2023-04-21T06:43:22;95003.50;;;18.78;48.38
64668;BME280;51077;42.716;23.344;2023-04-21T06:45:47;94999.47;;;18.89;47.75
64668;BME280;51077;42.716;23.344;2023-04-21T06:48:13;94991.38;;;19.00;47.38
64668;BME280;51077;42.716;23.344;2023-04-21T06:50:38;94991.75;;;19.14;46.98
64668;BME280;51077;42.716;23.344;2023-04-21T06:53:04;95002.09;;;19.31;46.69
64668;BME280;51077;42.716;23.344;2023-04-21T06:55:29;94993.97;;;19.43;46.18
64668;BME280;51077;42.716;23.344;2023-04-21T06:57:55;94999.66;;;19.62;45.66
64668;BME280;51077;42.716;23.344;2023-04-21T07:00:20;94997.38;;;19.78;45.18
64668;BME280;51077;42.716;23.344;2023-04-21T07:02:46;94990.41;;;19.96;44.80
64668;BME280;51077;42.716;23.344;2023-04-21T07:05:12;94996.06;;;20.16;44.27
64668;BME280;51077;42.716;23.344;2023-04-21T07:07:37;94988.31;;;20.33;43.68
64668;BME280;51077;42.716;23.344;2023-04-21T07:10:02;94981.88;;;20.50;42.95
64668;BME280;51077;42.716;23.344;2023-04-21T07:12:28;94989.25;;;20.65;42.51
64668;BME280;51077;42.716;23.344;2023-04-21T07:14:53;94988.38;;;20.82;41.99
64668;BME280;51077;42.716;23.344;2023-04-21T07:17:19;94989.53;;;20.98;41.76
64668;BME280;51077;42.716;23.344;2023-04-21T07:19:44;94989.81;;;21.12;41.58
64668;BME280;51077;42.716;23.344;2023-04-21T07:22:10;94992.72;;;21.24;41.00
64668;BME280;51077;42.716;23.344;2023-04-21T07:24:35;94987.91;;;21.34;40.39
64668;BME280;51077;42.716;23.344;2023-04-21T07:27:02;94996.09;;;21.42;40.01
64668;BME280;51077;42.716;23.344;2023-04-21T07:29:28;94987.56;;;21.49;39.64
64668;BME280;51077;42.716;23.344;2023-04-21T07:31:54;94989.59;;;21.58;39.38
64668;BME280;51077;42.716;23.344;2023-04-21T07:34:20;94986.91;;;21.70;39.14
64668;BME280;51077;42.716;23.344;2023-04-21T07:36:45;94992.88;;;21.86;39.05
64668;BME280;51077;42.716;23.344;2023-04-21T07:39:11;94986.34;;;22.03;38.56
64668;BME280;51077;42.716;23.344;2023-04-21T07:41:37;94987.59;;;22.21;37.78
64668;BME280;51077;42.716;23.344;2023-04-21T07:44:02;94986.34;;;22.34;37.57
64668;BME280;51077;42.716;23.344;2023-04-21T07:46:27;94990.66;;;22.47;36.88
64668;BME280;51077;42.716;23.344;2023-04-21T07:48:56;94992.94;;;22.60;36.93
64668;BME280;51077;42.716;23.344;2023-04-21T07:51:22;94997.84;;;22.71;36.79
64668;BME280;51077;42.716;23.344;2023-04-21T07:53:48;94992.44;;;22.85;36.48
64668;BME280;51077;42.716;23.344;2023-04-21T07:56:14;94990.59;;;22.99;35.98
64668;BME280;51077;42.716;23.344;2023-04-21T07:58:40;94986.16;;;23.18;36.10
64668;BME280;51077;42.716;23.344;2023-04-21T08:01:06;94990.44;;;23.30;35.72
64668;BME280;51077;42.716;23.344;2023-04-21T08:03:31;94986.44;;;23.33;34.92
64668;BME280;51077;42.716;23.344;2023-04-21T08:05:56;94980.84;;;23.45;34.71
64668;BME280;51077;42.716;23.344;2023-04-21T08:08:22;94977.22;;;23.54;34.38
64668;BME280;51077;42.716;23.344;2023-04-21T08:10:47;94981.25;;;23.63;34.19
64668;BME280;51077;42.716;23.344;2023-04-21T08:13:13;94979.34;;;23.77;33.93
64668;BME280;51077;42.716;23.344;2023-04-21T08:15:38;94983.13;;;23.94;34.03
64668;BME280;51077;42.716;23.344;2023-04-21T08:18:03;94980.69;;;24.00;33.66
64668;BME280;51077;42.716;23.344;2023-04-21T08:20:29;94989.84;;;24.00;33.50
64668;BME280;51077;42.716;23.344;2023-04-21T08:22:54;94968.75;;;23.99;33.57
64668;BME280;51077;42.716;23.344;2023-04-21T08:25:20;94976.69;;;23.91;33.13
64668;BME280;51077;42.716;23.344;2023-04-21T08:27:45;94977.28;;;23.78;33.24
64668;BME280;51077;42.716;23.344;2023-04-21T08:30:11;94970.94;;;23.66;33.55
64668;BME280;51077;42.716;23.344;2023-04-21T08:32:36;94977.47;;;23.58;33.66
64668;BME280;51077;42.716;23.344;2023-04-21T08:35:02;94972.38;;;23.67;33.37
64668;BME280;51077;42.716;23.344;2023-04-21T08:37:27;94961.69;;;23.87;33.17
64668;BME280;51077;42.716;23.344;2023-04-21T08:39:53;94970.47;;;24.04;32.74
64668;BME280;51077;42.716;23.344;2023-04-21T08:42:19;94963.22;;;24.25;32.97
64668;BME280;51077;42.716;23.344;2023-04-21T08:44:45;94967.25;;;24.45;32.47
64668;BME280;51077;42.716;23.344;2023-04-21T08:47:12;94955.38;;;24.58;32.40
64668;BME280;51077;42.716;23.344;2023-04-21T08:49:39;94968.16;;;24.73;32.28
64668;BME280;51077;42.716;23.344;2023-04-21T08:52:05;94965.75;;;24.93;31.65
64668;BME280;51077;42.716;23.344;2023-04-21T08:54:31;94964.22;;;25.16;31.39
64668;BME280;51077;42.716;23.344;2023-04-21T08:56:57;94961.19;;;25.37;31.12
64668;BME280;51077;42.716;23.344;2023-04-21T08:59:22;94958.22;;;25.61;30.55
64668;BME280;51077;42.716;23.344;2023-04-21T09:02:14;94947.69;;;25.87;29.98
64668;BME280;51077;42.716;23.344;2023-04-21T09:04:43;94957.69;;;26.17;29.70
64668;BME280;51077;42.716;23.344;2023-04-21T09:07:09;94960.50;;;26.45;29.72
64668;BME280;51077;42.716;23.344;2023-04-21T09:09:54;94955.81;;;26.49;29.75
64668;BME280;51077;42.716;23.344;2023-04-21T09:12:20;94954.88;;;26.31;30.18
64668;BME280;51077;42.716;23.344;2023-04-21T09:14:46;94952.75;;;25.90;31.18
64668;BME280;51077;42.716;23.344;2023-04-21T09:17:13;94946.06;;;25.70;30.80
64668;BME280;51077;42.716;23.344;2023-04-21T09:19:39;94944.25;;;25.49;32.50
64668;BME280;51077;42.716;23.344;2023-04-21T09:22:05;94934.50;;;25.24;33.99
64668;BME280;51077;42.716;23.344;2023-04-21T09:24:30;94933.88;;;25.00;34.51
64668;BME280;51077;42.716;23.344;2023-04-21T09:26:56;94929.84;;;24.78;34.27
64668;BME280;51077;42.716;23.344;2023-04-21T09:29:22;94923.78;;;24.58;34.08
64668;BME280;51077;42.716;23.344;2023-04-21T09:31:48;94929.72;;;24.39;34.18
64668;BME280;51077;42.716;23.344;2023-04-21T09:34:22;94922.63;;;24.38;33.54
64668;BME280;51077;42.716;23.344;2023-04-21T09:37:01;94932.22;;;24.46;33.28
64668;BME280;51077;42.716;23.344;2023-04-21T09:39:31;94924.59;;;24.72;32.52
64668;BME280;51077;42.716;23.344;2023-04-21T09:41:57;94921.41;;;24.78;32.36
64668;BME280;51077;42.716;23.344;2023-04-21T09:44:26;94914.22;;;24.75;31.96
64668;BME280;51077;42.716;23.344;2023-04-21T09:46:57;94909.38;;;24.64;31.75
64668;BME280;51077;42.716;23.344;2023-04-21T09:49:28;94895.72;;;24.58;32.13
64668;BME280;51077;42.716;23.344;2023-04-21T09:51:55;94902.22;;;24.49;31.66
64668;BME280;51077;42.716;23.344;2023-04-21T09:54:27;94907.00;;;24.35;32.16
64668;BME280;51077;42.716;23.344;2023-04-21T09:56:54;94905.44;;;24.20;32.11
64668;BME280;51077;42.716;23.344;2023-04-21T09:59:29;94906.69;;;24.05;32.33
64668;BME280;51077;42.716;23.344;2023-04-21T10:01:56;94905.00;;;23.88;32.09
64668;BME280;51077;42.716;23.344;2023-04-21T10:04:24;94897.94;;;23.75;32.41
64668;BME280;51077;42.716;23.344;2023-04-21T10:06:50;94904.41;;;23.66;32.55
64668;BME280;51077;42.716;23.344;2023-04-21T10:09:17;94912.22;;;23.79;32.26
64668;BME280;51077;42.716;23.344;2023-04-21T10:11:45;94904.66;;;23.82;32.16
64668;BME280;51077;42.716;23.344;2023-04-21T10:14:11;94908.19;;;23.82;32.21
64668;BME280;51077;42.716;23.344;2023-04-21T10:16:37;94901.97;;;23.84;32.18
64668;BME280;51077;42.716;23.344;2023-04-21T10:19:25;94906.69;;;24.05;31.89
64668;BME280;51077;42.716;23.344;2023-04-21T10:21:51;94905.66;;;24.36;31.68
64668;BME280;51077;42.716;23.344;2023-04-21T10:24:19;94898.94;;;24.52;31.82
64668;BME280;51077;42.716;23.344;2023-04-21T10:26:44;94896.69;;;24.63;31.59
64668;BME280;51077;42.716;23.344;2023-04-21T10:29:10;94896.16;;;24.78;31.25
64668;BME280;51077;42.716;23.344;2023-04-21T10:31:52;94898.69;;;25.11;31.12
64668;BME280;51077;42.716;23.344;2023-04-21T10:41:50;94894.06;;;25.29;30.44
64668;BME280;51077;42.716;23.344;2023-04-21T10:44:16;94889.69;;;25.26;30.62
64668;BME280;51077;42.716;23.344;2023-04-21T10:46:52;94889.34;;;25.20;30.60
64668;BME280;51077;42.716;23.344;2023-04-21T10:54:21;94896.84;;;25.96;29.63
64668;BME280;51077;42.716;23.344;2023-04-21T10:56:48;94890.94;;;26.61;28.97
64668;BME280;51077;42.716;23.344;2023-04-21T10:59:17;94894.13;;;26.99;28.12
64668;BME280;51077;42.716;23.344;2023-04-21T11:01:42;94897.03;;;27.46;27.86
64668;BME280;51077;42.716;23.344;2023-04-21T11:04:19;94891.72;;;27.84;27.24
64668;BME280;51077;42.716;23.344;2023-04-21T11:07:23;94895.91;;;27.83;27.33
64668;BME280;51077;42.716;23.344;2023-04-21T11:10:03;94887.09;;;27.75;27.36
64668;BME280;51077;42.716;23.344;2023-04-21T11:12:34;94896.16;;;27.58;27.60
64668;BME280;51077;42.716;23.344;2023-04-21T11:15:08;94888.59;;;27.46;27.81
64668;BME280;51077;42.716;23.344;2023-04-21T11:17:35;94886.59;;;27.33;28.05
64668;BME280;51077;42.716;23.344;2023-04-21T11:20:02;94883.38;;;27.25;28.14
64668;BME280;51077;42.716;23.344;2023-04-21T11:22:28;94880.66;;;27.11;28.52
64668;BME280;51077;42.716;23.344;2023-04-21T11:24:56;94883.50;;;26.97;28.41
64668;BME280;51077;42.716;23.344;2023-04-21T11:27:22;94887.03;;;26.82;28.73
64668;BME280;51077;42.716;23.344;2023-04-21T11:29:49;94885.28;;;26.75;28.63
64668;BME280;51077;42.716;23.344;2023-04-21T11:32:16;94896.66;;;26.63;29.24
64668;BME280;51077;42.716;23.344;2023-04-21T11:34:42;94898.28;;;26.52;28.95
64668;BME280;51077;42.716;23.344;2023-04-21T11:37:09;94895.16;;;26.46;29.29
64668;BME280;51077;42.716;23.344;2023-04-21T11:39:41;94892.53;;;26.37;29.50
64668;BME280;51077;42.716;23.344;2023-04-21T11:42:08;94890.16;;;26.45;29.85
64668;BME280;51077;42.716;23.344;2023-04-21T11:44:44;94881.78;;;26.61;29.48
64668;BME280;51077;42.716;23.344;2023-04-21T11:47:17;94884.59;;;26.61;29.69
64668;BME280;51077;42.716;23.344;2023-04-21T11:49:45;94892.16;;;26.72;29.27
64668;BME280;51077;42.716;23.344;2023-04-21T11:52:28;94880.22;;;26.87;29.08
64668;BME280;51077;42.716;23.344;2023-04-21T11:55:02;94880.56;;;27.25;28.49
64668;BME280;51077;42.716;23.344;2023-04-21T11:57:30;94874.03;;;27.68;27.69
64668;BME280;51077;42.716;23.344;2023-04-21T12:00:00;94890.34;;;27.69;27.58
64668;BME280;51077;42.716;23.344;2023-04-21T12:02:28;94898.31;;;27.59;27.58
64668;BME280;51077;42.716;23.344;2023-04-21T12:04:58;94883.94;;;27.37;27.68
64668;BME280;51077;42.716;23.344;2023-04-21T12:07:24;94882.84;;;27.13;27.92
64668;BME280;51077;42.716;23.344;2023-04-21T12:09:53;94893.13;;;26.92;28.07
64668;BME280;51077;42.716;23.344;2023-04-21T12:12:18;94893.53;;;26.71;28.30
64668;BME280;51077;42.716;23.344;2023-04-21T12:14:44;94895.34;;;26.50;28.51
64668;BME280;51077;42.716;23.344;2023-04-21T12:17:09;94892.13;;;26.28;28.62
64668;BME280;51077;42.716;23.344;2023-04-21T12:19:40;94889.03;;;26.09;28.58
64668;BME280;51077;42.716;23.344;2023-04-21T12:22:13;94893.72;;;25.90;29.14
64668;BME280;51077;42.716;23.344;2023-04-21T12:24:39;94894.13;;;25.71;29.34
64668;BME280;51077;42.716;23.344;2023-04-21T12:27:06;94882.75;;;25.55;29.30
64668;BME280;51077;42.716;23.344;2023-04-21T12:29:32;94888.47;;;25.43;29.60
64668;BME280;51077;42.716;23.344;2023-04-21T12:32:02;94886.97;;;25.28;29.39
64668;BME280;51077;42.716;23.344;2023-04-21T12:34:27;94880.09;;;25.18;29.68
64668;BME280;51077;42.716;23.344;2023-04-21T12:36:53;94876.38;;;25.27;29.47
64668;BME280;51077;42.716;23.344;2023-04-21T12:39:18;94884.53;;;25.48;29.15
64668;BME280;51077;42.716;23.344;2023-04-21T12:41:44;94887.59;;;25.80;28.61
64668;BME280;51077;42.716;23.344;2023-04-21T12:44:11;94885.78;;;26.28;27.99
64668;BME280;51077;42.716;23.344;2023-04-21T12:46:37;94891.75;;;26.64;27.97
64668;BME280;51077;42.716;23.344;2023-04-21T12:49:02;94885.59;;;26.67;27.59
64668;BME280;51077;42.716;23.344;2023-04-21T12:51:30;94881.47;;;26.54;27.60
64668;BME280;51077;42.716;23.344;2023-04-21T12:53:56;94879.09;;;26.35;27.99
64668;BME280;51077;42.716;23.344;2023-04-21T12:56:21;94872.97;;;26.11;28.05
64668;BME280;51077;42.716;23.344;2023-04-21T12:58:47;94878.31;;;25.91;28.22
64668;BME280;51077;42.716;23.344;2023-04-21T13:01:12;94878.81;;;25.74;28.59